Time;durP1;ratioP1;P1;durP2;ratioP2;P2;SDS_P1;SDS_P2;PMS_P1;PMS_P2;Temp;Humidity;BMP_temperature;BMP_pressure;BME280_temperature;BME280_humidity;BME280_pressure;Samples;Min_cycle;Max_cycle;Signal;HPM_P1;HPM_P2
2023/09/27 00:00:46;;;;;;;6.60;4.40;;;18.50;90.30;;;;;;5073283;28;20551;-57
2023/09/27 00:03:13;;;;;;;8.93;4.53;;;18.50;90.30;;;;;;5073166;28;20448;-57
2023/09/27 00:05:40;;;;;;;10.40;4.80;;;18.40;90.20;;;;;;5072868;28;20445;-57
2023/09/27 00:08:07;;;;;;;9.30;4.57;;;18.40;90.20;;;;;;5073147;28;20574;-57
2023/09/27 00:10:33;;;;;;;4.70;4.30;;;18.40;90.30;;;;;;5072871;28;20522;-57
2023/09/27 00:13:00;;;;;;;7.33;4.40;;;18.40;90.30;;;;;;5072669;28;20849;-57
2023/09/27 00:15:27;;;;;;;8.20;5.20;;;18.30;90.30;;;;;;5073109;28;20452;-57
2023/09/27 00:17:55;;;;;;;6.63;4.40;;;18.30;90.30;;;;;;5073106;28;20445;-57
2023/09/27 00:20:22;;;;;;;4.60;4.20;;;18.30;90.40;;;;;;5072630;28;20970;-57
2023/09/27 00:22:49;;;;;;;5.43;4.47;;;18.20;90.30;;;;;;5073103;28;20451;-57
2023/09/27 00:25:16;;;;;;;7.37;4.90;;;18.20;90.30;;;;;;5072704;28;20453;-57
2023/09/27 00:27:43;;;;;;;9.30;4.60;;;18.20;90.30;;;;;;5072967;28;20444;-57
2023/09/27 00:30:13;;;;;;;5.30;4.13;;;18.10;90.30;;;;;;5072632;28;20488;-56
2023/09/27 00:32:40;;;;;;;10.63;4.50;;;18.10;90.40;;;;;;5073030;28;20429;-57
2023/09/27 00:35:12;;;;;;;7.03;4.23;;;18.00;90.30;;;;;;5073046;28;20536;-57
2023/09/27 00:37:38;;;;;;;8.20;4.80;;;18.00;90.40;;;;;;5072602;28;20997;-57
2023/09/27 00:40:10;;;;;;;4.87;4.37;;;18.00;90.50;;;;;;5075986;28;20487;-57
2023/09/27 00:42:37;;;;;;;7.40;5.17;;;17.90;90.50;;;;;;5076900;28;20431;-57
2023/09/27 00:45:04;;;;;;;5.60;4.30;;;17.80;90.50;;;;;;5076192;28;20448;-57
2023/09/27 00:47:31;;;;;;;6.83;5.07;;;17.80;90.60;;;;;;5076287;28;20950;-57
2023/09/27 00:49:58;;;;;;;9.43;5.40;;;17.80;90.70;;;;;;5076295;28;20491;-57
2023/09/27 00:52:26;;;;;;;6.60;4.70;;;17.80;90.80;;;;;;5076431;28;20448;-57
2023/09/27 00:54:54;;;;;;;4.97;4.57;;;17.70;90.80;;;;;;5076078;28;20474;-57
2023/09/27 00:57:21;;;;;;;6.43;5.50;;;17.70;90.80;;;;;;5076417;28;20450;-57
2023/09/27 00:59:48;;;;;;;7.00;4.90;;;17.60;90.80;;;;;;5076326;28;20460;-57
2023/09/27 01:02:16;;;;;;;5.97;4.93;;;17.60;90.90;;;;;;5076288;28;20437;-57
2023/09/27 01:04:44;;;;;;;5.00;4.50;;;17.60;91.00;;;;;;5076257;28;20445;-57
2023/09/27 01:07:11;;;;;;;7.00;5.40;;;17.60;91.10;;;;;;5075948;28;20945;-57
2023/09/27 01:09:39;;;;;;;8.97;5.80;;;17.60;91.10;;;;;;5075988;28;20878;-57
2023/09/27 01:12:06;;;;;;;8.70;4.33;;;17.60;91.20;;;;;;5076025;28;20811;-57
2023/09/27 01:14:33;;;;;;;8.10;5.63;;;17.50;91.00;;;;;;5075926;28;20518;-57
2023/09/27 01:17:08;;;;;;;7.90;5.20;;;17.50;90.90;;;;;;5075989;28;20441;-57
2023/09/27 01:19:35;;;;;;;11.30;5.20;;;17.50;90.90;;;;;;5075957;28;20457;-57
2023/09/27 01:22:01;;;;;;;9.47;6.40;;;17.50;91.00;;;;;;5075867;28;20480;-57
2023/09/27 01:24:32;;;;;;;5.73;5.10;;;17.50;91.10;;;;;;5075996;28;20476;-57
2023/09/27 01:27:02;;;;;;;9.20;6.13;;;17.50;91.10;;;;;;5075925;28;20791;-57
2023/09/27 01:29:29;;;;;;;9.50;5.70;;;17.50;91.10;;;;;;5075658;28;20492;-57
2023/09/27 01:31:56;;;;;;;7.53;5.90;;;17.40;90.90;;;;;;5075691;28;20484;-57
2023/09/27 01:34:23;;;;;;;5.87;5.37;;;17.40;90.90;;;;;;5075607;28;20494;-57
2023/09/27 01:36:51;;;;;;;5.53;4.93;;;17.40;91.00;;;;;;5075647;28;20813;-57
2023/09/27 01:39:18;;;;;;;6.67;5.30;;;17.30;91.00;;;;;;5075400;28;20490;-57
2023/09/27 01:41:46;;;;;;;6.20;5.00;;;17.30;91.00;;;;;;5075261;28;20441;-57
2023/09/27 01:44:13;;;;;;;9.43;5.53;;;17.30;90.90;;;;;;5075364;28;20443;-57
2023/09/27 01:46:39;;;;;;;8.43;5.50;;;17.20;90.90;;;;;;5075458;28;20452;-57
2023/09/27 01:49:06;;;;;;;7.07;5.40;;;17.20;90.90;;;;;;5075332;28;20492;-57
2023/09/27 01:51:33;;;;;;;6.00;5.50;;;17.20;91.00;;;;;;5074362;28;20484;-57
2023/09/27 01:53:59;;;;;;;7.23;5.10;;;17.10;90.90;;;;;;5075326;28;20445;-57
2023/09/27 01:56:26;;;;;;;10.00;5.27;;;17.10;90.90;;;;;;5074982;28;20935;-57
2023/09/27 01:58:54;;;;;;;7.33;5.60;;;17.10;90.90;;;;;;5074822;28;20931;-57
2023/09/27 02:01:21;;;;;;;6.20;5.20;;;17.10;90.90;;;;;;5074858;28;20440;-57
2023/09/27 02:03:48;;;;;;;10.43;5.10;;;17.00;90.90;;;;;;5075100;28;20456;-57
2023/09/27 02:06:14;;;;;;;6.17;5.53;;;17.00;90.90;;;;;;5075004;28;20543;-57
2023/09/27 02:08:41;;;;;;;9.03;5.00;;;17.00;90.90;;;;;;5074942;28;20543;-57
2023/09/27 02:11:08;;;;;;;8.83;5.60;;;16.90;90.80;;;;;;5074834;28;20225;-57
2023/09/27 02:13:34;;;;;;;6.57;4.67;;;16.90;90.80;;;;;;5074455;28;20819;-56
2023/09/27 02:16:02;;;;;;;8.57;4.90;;;16.90;90.90;;;;;;5074896;28;20444;-57
2023/09/27 02:18:29;;;;;;;7.87;4.90;;;16.80;90.80;;;;;;5074859;28;20444;-57
2023/09/27 02:20:56;;;;;;;5.97;5.10;;;16.90;90.90;;;;;;5074689;28;20515;-57
2023/09/27 02:23:22;;;;;;;7.73;4.57;;;16.90;90.80;;;;;;5074586;28;20447;-57
2023/09/27 02:25:57;;;;;;;7.40;5.20;;;16.80;90.70;;;;;;5074415;28;20965;-57
2023/09/27 02:28:24;;;;;;;6.10;5.23;;;16.80;90.70;;;;;;5074613;28;20512;-57
2023/09/27 02:30:50;;;;;;;8.53;4.60;;;16.80;90.80;;;;;;5074409;28;20484;-57
2023/09/27 02:33:20;;;;;;;6.77;5.20;;;16.80;90.70;;;;;;5074571;28;20452;-57
2023/09/27 02:35:47;;;;;;;6.87;4.17;;;16.70;90.70;;;;;;5074275;28;20460;-56
2023/09/27 02:38:14;;;;;;;7.50;5.20;;;16.70;90.80;;;;;;5074448;28;20506;-57
2023/09/27 02:40:42;;;;;;;6.10;4.80;;;16.80;91.00;;;;;;5074269;28;20499;-57
2023/09/27 02:43:08;;;;;;;6.50;4.30;;;16.80;91.20;;;;;;5074629;28;20449;-57
2023/09/27 02:45:36;;;;;;;5.73;4.77;;;16.80;91.20;;;;;;5074331;28;20451;-57
2023/09/27 02:48:03;;;;;;;10.43;5.57;;;16.80;91.20;;;;;;5074995;28;20452;-57
2023/09/27 02:50:31;;;;;;;7.23;4.40;;;16.70;91.20;;;;;;5074035;28;20537;-57
2023/09/27 02:52:58;;;;;;;5.73;4.77;;;16.70;91.20;;;;;;5074301;28;20475;-57
2023/09/27 02:55:25;;;;;;;6.40;4.70;;;16.60;91.10;;;;;;5074200;28;20494;-57
2023/09/27 02:57:52;;;;;;;4.90;4.37;;;16.60;91.20;;;;;;5073864;28;20938;-57
2023/09/27 03:00:20;;;;;;;5.60;4.70;;;16.60;91.30;;;;;;5074429;28;20457;-57
2023/09/27 03:02:46;;;;;;;6.70;5.50;;;16.60;91.40;;;;;;5074273;28;20449;-57
2023/09/27 03:05:14;;;;;;;7.30;4.97;;;16.60;91.40;;;;;;5074391;28;20451;-57
2023/09/27 03:07:44;;;;;;;7.20;4.77;;;16.50;91.30;;;;;;5074003;28;20539;-57
2023/09/27 03:10:11;;;;;;;5.93;5.33;;;16.50;91.30;;;;;;5074089;28;20472;-57
2023/09/27 03:12:39;;;;;;;6.40;4.80;;;16.50;91.30;;;;;;5073766;28;20539;-57
2023/09/27 03:15:11;;;;;;;6.50;4.13;;;16.40;91.40;;;;;;5073800;28;20870;-57
2023/09/27 03:17:38;;;;;;;7.77;4.60;;;16.40;91.50;;;;;;5073884;28;20425;-57
2023/09/27 03:20:14;;;;;;;5.37;3.93;;;16.40;91.60;;;;;;5073815;28;20469;-57
2023/09/27 03:22:42;;;;;;;3.93;3.63;;;16.40;91.60;;;;;;5073747;28;20431;-56
2023/09/27 03:25:09;;;;;;;4.53;4.13;;;16.40;91.50;;;;;;5073555;28;20457;-57
2023/09/27 03:27:36;;;;;;;5.00;4.50;;;16.40;91.60;;;;;;5073306;28;20964;-57
2023/09/27 03:30:04;;;;;;;4.53;4.10;;;16.40;91.60;;;;;;5073443;28;20464;-57
2023/09/27 03:32:31;;;;;;;7.20;4.80;;;16.40;91.60;;;;;;5073568;28;20480;-57
2023/09/27 03:34:58;;;;;;;7.50;4.80;;;16.40;91.50;;;;;;5073477;28;20456;-57
2023/09/27 03:37:25;;;;;;;6.23;4.43;;;16.40;91.60;;;;;;5073449;28;20490;-57
2023/09/27 03:39:53;;;;;;;6.23;5.43;;;16.40;91.50;;;;;;5073918;28;20970;-57
2023/09/27 03:42:20;;;;;;;10.53;5.00;;;16.30;91.40;;;;;;5073143;28;20437;-57
2023/09/27 03:44:48;;;;;;;8.13;4.90;;;16.30;91.50;;;;;;5073313;28;20448;-57
2023/09/27 03:47:15;;;;;;;4.70;4.20;;;16.30;91.70;;;;;;5073306;28;20455;-57
2023/09/27 03:49:42;;;;;;;7.00;5.27;;;16.20;91.70;;;;;;5073324;28;20480;-57
2023/09/27 03:52:09;;;;;;;10.67;4.90;;;16.20;91.80;;;;;;5073170;28;20488;-57
2023/09/27 03:54:36;;;;;;;5.90;4.97;;;16.20;91.80;;;;;;5073280;28;20441;-57
2023/09/27 03:57:04;;;;;;;11.40;5.27;;;16.10;91.70;;;;;;5072982;28;20976;-57
2023/09/27 03:59:31;;;;;;;6.67;5.30;;;16.10;91.90;;;;;;5073106;28;20469;-57
2023/09/27 04:01:58;;;;;;;7.30;4.73;;;16.00;91.90;;;;;;5073155;28;20436;-56
2023/09/27 04:04:25;;;;;;;5.97;5.30;;;16.00;91.90;;;;;;5073231;28;20444;-57
2023/09/27 04:06:51;;;;;;;6.23;5.50;;;16.00;92.00;;;;;;5073187;28;20537;-57
2023/09/27 04:09:18;;;;;;;6.00;5.00;;;16.10;92.10;;;;;;5073135;28;20460;-57
2023/09/27 04:11:45;;;;;;;5.80;5.17;;;16.10;92.10;;;;;;5073012;28;20476;-56
2023/09/27 04:14:13;;;;;;;6.70;4.90;;;16.10;92.10;;;;;;5074783;28;20469;-56
2023/09/27 04:16:40;;;;;;;10.17;5.07;;;16.10;92.10;;;;;;5077172;28;20467;-57
2023/09/27 04:19:06;;;;;;;8.20;5.23;;;16.10;92.10;;;;;;5077056;28;20468;-57
2023/09/27 04:21:33;;;;;;;12.70;6.77;;;16.10;92.00;;;;;;5077152;28;20436;-57
2023/09/27 04:24:03;;;;;;;11.20;5.30;;;16.10;91.90;;;;;;5076765;28;20460;-56
2023/09/27 04:26:30;;;;;;;9.37;5.50;;;16.00;91.70;;;;;;5077942;28;20454;-57
2023/09/27 04:28:57;;;;;;;7.13;5.77;;;15.90;91.90;;;;;;5076783;28;20872;-56
2023/09/27 04:31:25;;;;;;;6.30;5.47;;;15.90;92.00;;;;;;5076814;28;20491;-56
2023/09/27 04:33:51;;;;;;;6.77;5.40;;;15.90;92.00;;;;;;5076810;28;20447;-57
2023/09/27 04:36:18;;;;;;;6.13;5.37;;;15.80;91.90;;;;;;5076777;28;20444;-57
2023/09/27 04:38:46;;;;;;;5.43;4.90;;;15.80;91.90;;;;;;5076825;28;20449;-57
2023/09/27 04:41:14;;;;;;;6.77;5.37;;;15.80;91.80;;;;;;5076814;28;20436;-57
2023/09/27 04:43:41;;;;;;;6.90;6.27;;;15.80;91.90;;;;;;5076972;28;20461;-56
2023/09/27 04:46:08;;;;;;;9.33;5.43;;;15.80;92.00;;;;;;5076653;28;20445;-56
2023/09/27 04:48:36;;;;;;;6.90;5.60;;;15.80;92.00;;;;;;5076829;28;20436;-57
2023/09/27 04:51:03;;;;;;;8.83;5.80;;;15.80;92.30;;;;;;5076368;28;20886;-56
2023/09/27 04:53:34;;;;;;;5.13;4.60;;;15.80;91.90;;;;;;5076340;28;20800;-56
2023/09/27 04:56:02;;;;;;;6.57;5.80;;;15.80;91.90;;;;;;5076417;28;20523;-57
2023/09/27 04:58:28;;;;;;;5.53;5.03;;;15.80;91.90;;;;;;5076300;28;20486;-57
2023/09/27 05:00:55;;;;;;;7.47;5.27;;;15.80;91.90;;;;;;5076003;28;20501;-56
2023/09/27 05:03:22;;;;;;;6.97;5.77;;;15.80;92.00;;;;;;5076176;28;20453;-56
2023/09/27 05:05:50;;;;;;;8.13;4.87;;;15.80;92.10;;;;;;5076208;28;20444;-56
2023/09/27 05:08:17;;;;;;;5.57;4.97;;;15.80;92.20;;;;;;5076166;28;20454;-56
2023/09/27 05:10:43;;;;;;;8.10;5.30;;;15.80;92.50;;;;;;5075823;28;20471;-57
2023/09/27 05:13:10;;;;;;;7.73;5.40;;;15.70;92.10;;;;;;5075991;28;20440;-56
2023/09/27 05:15:37;;;;;;;5.40;4.90;;;15.70;92.10;;;;;;5075954;28;20535;-56
2023/09/27 05:18:04;;;;;;;11.13;5.30;;;15.70;92.10;;;;;;5076016;28;20449;-56
2023/09/27 05:20:31;;;;;;;5.87;5.27;;;15.70;92.20;;;;;;5076268;28;20465;-56
2023/09/27 05:22:59;;;;;;;5.97;4.60;;;15.60;92.00;;;;;;5075931;28;20449;-57
2023/09/27 05:25:26;;;;;;;5.30;4.90;;;15.60;91.90;;;;;;5074161;28;20813;-57
2023/09/27 05:27:52;;;;;;;6.03;5.43;;;15.60;92.10;;;;;;5075835;28;20464;-56
2023/09/27 05:30:21;;;;;;;7.33;4.87;;;15.60;92.20;;;;;;5075719;28;20816;-56
2023/09/27 05:32:48;;;;;;;6.87;5.03;;;15.50;92.10;;;;;;5075700;28;20480;-56
2023/09/27 05:35:14;;;;;;;3.93;3.63;;;15.60;92.20;;;;;;5075546;28;20464;-56
2023/09/27 05:37:42;;;;;;;7.20;4.40;;;15.50;92.30;;;;;;5075648;28;20449;-56
2023/09/27 05:40:11;;;;;;;6.20;4.50;;;15.50;92.40;;;;;;5075472;28;20496;-56
2023/09/27 05:42:38;;;;;;;6.43;5.80;;;15.60;92.60;;;;;;5075549;28;20440;-56
2023/09/27 05:45:07;;;;;;;6.80;4.90;;;15.60;92.90;;;;;;5075111;28;20961;-56
2023/09/27 05:47:34;;;;;;;5.77;5.23;;;15.60;92.90;;;;;;5075417;28;20478;-56
2023/09/27 05:50:01;;;;;;;6.60;4.93;;;15.70;93.00;;;;;;5075310;28;20548;-56
2023/09/27 05:52:28;;;;;;;11.40;5.07;;;15.70;93.10;;;;;;5075189;28;20477;-56
2023/09/27 05:54:56;;;;;;;9.43;4.93;;;15.70;93.10;;;;;;5075020;28;20943;-56
2023/09/27 05:57:24;;;;;;;7.43;5.13;;;15.70;93.20;;;;;;5074830;28;20455;-55
2023/09/27 05:59:51;;;;;;;9.67;5.60;;;15.80;93.30;;;;;;5075070;28;20514;-56
2023/09/27 06:02:17;;;;;;;7.87;5.60;;;15.80;93.40;;;;;;5075255;28;20440;-56
2023/09/27 06:04:44;;;;;;;8.57;5.80;;;15.80;93.50;;;;;;5096033;28;20448;-56
2023/09/27 06:07:14;;;;;;;8.00;5.27;;;15.90;93.60;;;;;;5095329;28;20479;-56
2023/09/27 06:09:41;;;;;;;7.57;5.47;;;15.90;93.70;;;;;;5094913;28;20853;-56
2023/09/27 06:12:08;;;;;;;14.83;6.13;;;15.90;93.80;;;;;;5095328;28;20518;-56
2023/09/27 06:14:36;;;;;;;6.47;5.87;;;16.00;94.10;;;;;;5095178;28;20471;-56
2023/09/27 06:17:05;;;;;;;7.57;6.77;;;16.00;93.90;;;;;;5094891;28;20451;-56
2023/09/27 06:19:32;;;;;;;7.57;5.70;;;16.00;94.00;;;;;;5095055;28;20554;-56
2023/09/27 06:21:59;;;;;;;6.83;6.00;;;16.10;94.20;;;;;;5095054;28;20466;-56
2023/09/27 06:24:26;;;;;;;9.27;6.73;;;16.10;94.30;;;;;;5094859;28;20452;-56
2023/09/27 06:26:53;;;;;;;7.40;6.70;;;16.10;94.40;;;;;;5094829;28;20502;-56
2023/09/27 06:29:20;;;;;;;7.13;6.53;;;16.20;94.40;;;;;;5094852;28;20472;-56
2023/09/27 06:31:49;;;;;;;7.73;6.30;;;16.20;94.40;;;;;;5094853;28;20480;-56
2023/09/27 06:34:16;;;;;;;10.73;8.27;;;16.20;94.40;;;;;;5094858;28;20501;-56
2023/09/27 06:36:43;;;;;;;10.10;9.10;;;16.30;94.50;;;;;;5095044;28;20451;-55
2023/09/27 06:39:12;;;;;;;10.77;9.40;;;16.30;94.50;;;;;;5094714;28;20467;-56
2023/09/27 06:41:40;;;;;;;9.30;8.27;;;16.30;94.60;;;;;;5095046;28;20455;-56
2023/09/27 06:44:07;;;;;;;10.90;9.57;;;16.40;94.70;;;;;;5094470;28;20448;-56
2023/09/27 06:46:34;;;;;;;10.70;9.63;;;16.40;94.70;;;;;;5094556;28;20866;-56
2023/09/27 06:49:03;;;;;;;19.63;9.70;;;16.50;94.80;;;;;;5094419;28;20787;-56
2023/09/27 06:51:31;;;;;;;10.53;9.63;;;16.60;94.80;;;;;;5094051;28;20490;-56
2023/09/27 06:53:58;;;;;;;11.00;9.90;;;16.70;94.80;;;;;;5094452;28;20852;-56
2023/09/27 06:56:24;;;;;;;10.07;9.17;;;16.80;94.90;;;;;;5094372;28;20450;-56
2023/09/27 06:58:52;;;;;;;9.20;8.50;;;16.90;94.90;;;;;;5094268;28;20440;-56
2023/09/27 07:01:19;;;;;;;11.13;10.10;;;17.00;94.90;;;;;;5092475;28;20520;-55
2023/09/27 07:03:48;;;;;;;12.33;10.27;;;17.10;94.80;;;;;;5076901;28;20958;-56
2023/09/27 07:06:16;;;;;;;10.80;9.03;;;17.10;94.80;;;;;;5073823;28;20463;-56
2023/09/27 07:08:46;;;;;;;10.10;9.10;;;17.20;94.90;;;;;;5073848;28;20615;-56
2023/09/27 07:11:14;;;;;;;11.00;10.00;;;17.20;94.80;;;;;;5077477;28;20820;-55
2023/09/27 07:13:42;;;;;;;10.67;9.37;;;17.30;94.70;;;;;;5073097;28;21028;-56
2023/09/27 07:16:26;;;;;;;11.13;10.03;;;17.30;94.60;;;;;;5073571;28;20446;-56
2023/09/27 07:18:52;;;;;;;11.60;10.40;;;17.40;94.60;;;;;;5073339;28;20907;-56
2023/09/27 07:21:21;;;;;;;11.70;10.50;;;17.50;94.60;;;;;;5073643;28;20442;-57
2023/09/27 07:23:49;;;;;;;11.60;10.43;;;17.60;94.50;;;;;;5073357;28;20460;-57
2023/09/27 07:26:16;;;;;;;13.07;10.40;;;17.60;94.30;;;;;;5073326;28;20921;-57
2023/09/27 07:28:42;;;;;;;12.53;11.00;;;17.70;94.30;;;;;;5073586;28;20474;-57
2023/09/27 07:31:09;;;;;;;15.03;10.63;;;17.80;94.20;;;;;;5073435;28;20453;-57
2023/09/27 07:33:36;;;;;;;11.80;9.63;;;17.90;94.20;;;;;;5073428;28;20481;-57
2023/09/27 07:36:05;;;;;;;14.33;10.67;;;18.00;94.30;;;;;;5073505;28;20472;-57
2023/09/27 07:38:33;;;;;;;10.40;9.30;;;18.20;94.10;;;;;;5073781;28;20453;-57
2023/09/27 07:40:59;;;;;;;13.57;10.87;;;18.30;93.90;;;;;;5073366;28;20465;-57
2023/09/27 07:43:26;;;;;;;18.93;11.70;;;18.40;93.60;;;;;;5073359;28;20444;-57
2023/09/27 07:45:54;;;;;;;17.20;11.77;;;18.50;93.90;;;;;;5073397;28;20497;-57
2023/09/27 07:48:21;;;;;;;15.10;11.03;;;18.60;93.60;;;;;;5073137;28;20503;-57
2023/09/27 07:50:49;;;;;;;18.80;12.10;;;18.70;93.40;;;;;;5073395;28;20472;-57
2023/09/27 07:53:15;;;;;;;12.07;10.47;;;18.80;93.20;;;;;;5073122;28;20480;-57
2023/09/27 07:55:48;;;;;;;17.50;9.30;;;19.00;93.10;;;;;;5073345;28;20452;-57
2023/09/27 07:58:15;;;;;;;10.37;9.37;;;19.10;92.90;;;;;;5073144;28;20434;-57
2023/09/27 08:00:43;;;;;;;14.13;9.47;;;19.20;92.50;;;;;;5073245;28;20471;-57
2023/09/27 08:03:10;;;;;;;9.33;8.37;;;19.30;92.20;;;;;;5073244;28;20467;-57
2023/09/27 08:05:42;;;;;;;9.60;8.70;;;19.50;92.00;;;;;;5073170;28;20528;-57
2023/09/27 08:08:10;;;;;;;9.80;7.27;;;19.60;91.60;;;;;;5073123;28;20460;-57
2023/09/27 08:10:43;;;;;;;13.20;7.27;;;19.80;91.20;;;;;;5072876;28;20981;-57
2023/09/27 08:13:12;;;;;;;8.57;7.17;;;19.90;90.80;;;;;;5072750;28;20469;-57
2023/09/27 08:15:39;;;;;;;14.40;7.03;;;20.00;90.40;;;;;;5073147;28;20472;-57
2023/09/27 08:18:06;;;;;;;8.23;7.40;;;20.20;90.00;;;;;;5077453;28;20449;-57
2023/09/27 08:20:33;;;;;;;9.43;6.20;;;20.30;89.50;;;;;;5072561;28;20474;-57
2023/09/27 08:23:00;;;;;;;8.30;6.77;;;20.40;88.90;;;;;;5072628;28;20445;-57
2023/09/27 08:25:27;;;;;;;7.03;5.97;;;20.40;88.60;;;;;;5072446;28;20491;-57
2023/09/27 08:27:53;;;;;;;9.33;6.77;;;20.50;88.20;;;;;;5072480;28;20451;-57
2023/09/27 08:30:22;;;;;;;6.50;5.37;;;20.50;87.70;;;;;;5072690;28;20476;-56
2023/09/27 08:32:49;;;;;;;6.93;5.70;;;20.60;87.20;;;;;;5072770;28;20472;-57
2023/09/27 08:35:16;;;;;;;5.37;4.83;;;20.60;86.90;;;;;;5072461;28;20468;-57
2023/09/27 08:37:42;;;;;;;6.60;5.90;;;20.60;86.60;;;;;;5072859;28;20452;-57
2023/09/27 08:40:12;;;;;;;5.93;5.07;;;20.60;86.10;;;;;;5072240;28;20468;-57
2023/09/27 08:42:40;;;;;;;8.03;6.30;;;20.60;85.70;;;;;;5072599;28;20958;-57
2023/09/27 08:45:12;;;;;;;10.93;7.60;;;20.70;85.90;;;;;;5072371;28;20453;-57
2023/09/27 08:47:42;;;;;;;9.60;7.63;;;20.80;86.70;;;;;;5072843;28;20490;-58
2023/09/27 08:50:13;;;;;;;9.17;7.03;;;21.00;87.30;;;;;;5072431;28;20872;-58
2023/09/27 08:52:42;;;;;;;8.63;7.70;;;21.10;87.10;;;;;;5072698;28;20464;-58
2023/09/27 08:55:09;;;;;;;8.53;7.10;;;21.20;86.90;;;;;;5072580;28;20977;-58
2023/09/27 08:57:37;;;;;;;9.87;8.10;;;21.30;86.80;;;;;;5072676;28;20468;-58
2023/09/27 09:00:13;;;;;;;7.93;7.13;;;21.40;86.80;;;;;;5073961;28;20472;-57
2023/09/27 09:02:44;;;;;;;8.90;7.10;;;21.50;86.70;;;;;;5076412;28;20511;-58
2023/09/27 09:05:12;;;;;;;7.77;6.80;;;21.60;86.40;;;;;;5076001;28;20429;-58
2023/09/27 09:07:41;;;;;;;9.00;6.60;;;21.70;85.70;;;;;;5076247;28;20528;-58
2023/09/27 09:10:12;;;;;;;7.13;6.40;;;21.80;85.10;;;;;;5076141;28;20514;-58
2023/09/27 09:12:39;;;;;;;10.23;7.43;;;21.90;84.90;;;;;;5076141;28;20518;-58
2023/09/27 09:15:07;;;;;;;13.50;6.87;;;22.00;85.00;;;;;;5076174;28;20450;-58
2023/09/27 09:17:35;;;;;;;7.37;6.57;;;22.10;85.30;;;;;;5076204;28;20535;-58
2023/09/27 09:20:15;;;;;;;7.50;6.80;;;22.20;85.30;;;;;;5075982;28;20514;-58
2023/09/27 09:22:44;;;;;;;8.00;7.20;;;22.30;85.20;;;;;;5075606;28;20918;-58
2023/09/27 09:25:10;;;;;;;11.10;8.47;;;22.40;84.80;;;;;;5075559;28;20460;-58
2023/09/27 09:27:37;;;;;;;10.90;7.70;;;22.40;83.90;;;;;;5075564;28;20969;-58
2023/09/27 09:30:07;;;;;;;9.27;7.17;;;22.40;82.60;;;;;;5075741;28;20812;-58
2023/09/27 09:32:35;;;;;;;10.20;8.33;;;22.50;83.40;;;;;;5075710;28;20488;-58
2023/09/27 09:35:02;;;;;;;9.23;8.43;;;22.70;82.50;;;;;;5075450;28;20449;-58
2023/09/27 09:37:30;;;;;;;7.83;6.87;;;22.80;81.50;;;;;;5075728;28;20449;-58
2023/09/27 09:40:12;;;;;;;6.93;6.30;;;23.00;81.90;;;;;;5075619;28;20457;-58
2023/09/27 09:42:39;;;;;;;8.30;7.30;;;23.20;81.10;;;;;;5075790;28;20444;-58
2023/09/27 09:45:07;;;;;;;6.77;6.17;;;23.40;79.80;;;;;;5075500;28;20448;-58
2023/09/27 09:47:35;;;;;;;5.70;5.20;;;23.60;79.40;;;;;;5075529;28;20441;-58
2023/09/27 09:50:05;;;;;;;6.40;5.80;;;23.80;77.90;;;;;;5075577;28;20497;-58
2023/09/27 09:52:35;;;;;;;6.13;5.53;;;24.10;77.40;;;;;;5075278;28;20488;-58
2023/09/27 09:55:03;;;;;;;9.00;5.63;;;24.40;76.90;;;;;;5075366;28;20429;-58
2023/09/27 09:57:35;;;;;;;5.67;4.40;;;24.90;75.00;;;;;;5075000;28;20938;-59
2023/09/27 10:00:11;;;;;;;4.37;3.97;;;25.40;72.10;;;;;;5075226;28;20465;-58
2023/09/27 10:02:46;;;;;;;5.67;3.60;;;25.90;69.10;;;;;;5075320;28;20424;-59
2023/09/27 10:05:14;;;;;;;5.57;4.20;;;26.50;66.90;;;;;;5074900;28;20787;-58
2023/09/27 10:07:43;;;;;;;4.50;4.03;;;27.00;60.70;;;;;;5074937;28;20507;-58
2023/09/27 10:10:11;;;;;;;4.63;3.47;;;27.50;59.00;;;;;;5074942;28;20496;-56
2023/09/27 10:12:38;;;;;;;5.80;3.60;;;28.00;57.50;;;;;;5074273;28;20575;-56
2023/09/27 10:15:07;;;;;;;5.23;4.37;;;28.60;56.60;;;;;;5074515;28;20972;-57
2023/09/27 10:17:34;;;;;;;8.30;4.57;;;29.20;55.20;;;;;;5074884;28;20452;-57
2023/09/27 10:20:11;;;;;;;4.20;3.80;;;29.60;49.50;;;;;;5074736;28;20467;-57
2023/09/27 10:22:39;;;;;;;3.63;3.33;;;30.10;48.60;;;;;;5074793;28;20421;-57
2023/09/27 10:25:34;;;;;;;7.10;4.33;;;30.60;48.50;;;;;;5074407;28;20463;-57
2023/09/27 10:28:12;;;;;;;5.03;3.40;;;31.10;45.70;;;;;;5074805;28;20425;-57
2023/09/27 10:31:12;;;;;;;4.50;3.53;;;31.60;44.70;;;;;;5074611;28;20522;-57
2023/09/27 10:33:39;;;;;;;4.20;3.80;;;32.20;43.50;;;;;;5074569;28;20470;-57
2023/09/27 10:36:29;;;;;;;6.17;3.60;;;32.90;42.80;;;;;;5074533;28;20444;-57
2023/09/27 10:39:05;;;;;;;5.20;3.90;;;33.60;41.40;;;;;;5074354;28;20535;-57
2023/09/27 10:41:46;;;;;;;6.37;4.20;;;34.20;41.10;;;;;;5074393;28;20448;-57
2023/09/27 10:44:15;;;;;;;5.77;4.00;;;34.70;40.00;;;;;;5074320;28;20424;-56
2023/09/27 10:46:42;;;;;;;5.67;4.00;;;35.20;38.30;;;;;;5074395;28;20482;-57
2023/09/27 10:49:09;;;;;;;4.70;3.70;;;35.40;37.00;;;;;;5074175;28;20517;-57
2023/09/27 10:51:36;;;;;;;4.80;4.20;;;35.30;37.40;;;;;;5074156;28;20472;-57
2023/09/27 10:54:06;;;;;;;4.23;3.83;;;35.10;36.20;;;;;;5074221;28;20245;-57
2023/09/27 10:56:33;;;;;;;5.77;3.90;;;34.70;34.70;;;;;;5074218;28;20428;-57
2023/09/27 10:59:02;;;;;;;4.40;4.00;;;34.30;37.10;;;;;;5074007;28;20497;-57
2023/09/27 11:01:29;;;;;;;4.10;3.70;;;34.10;38.20;;;;;;5073953;28;20440;-57
2023/09/27 11:03:58;;;;;;;6.27;3.87;;;33.90;39.10;;;;;;5074067;28;20526;-57
2023/09/27 11:06:25;;;;;;;5.23;3.50;;;33.60;40.20;;;;;;5073928;28;20447;-57
2023/09/27 11:08:52;;;;;;;7.83;4.27;;;33.40;40.90;;;;;;5073904;28;20440;-57
2023/09/27 11:11:19;;;;;;;4.70;4.20;;;33.20;40.80;;;;;;5073844;28;20444;-57
2023/09/27 11:13:46;;;;;;;4.57;3.43;;;33.10;40.90;;;;;;5073652;28;20483;-57
2023/09/27 11:16:17;;;;;;;4.47;3.47;;;33.00;41.70;;;;;;5073921;28;20439;-57
2023/09/27 11:18:45;;;;;;;4.33;3.93;;;32.80;41.70;;;;;;5073802;28;20435;-57
2023/09/27 11:21:12;;;;;;;3.90;3.60;;;32.80;42.30;;;;;;5073857;28;20532;-57
2023/09/27 11:23:52;;;;;;;7.13;3.90;;;33.10;42.20;;;;;;5073065;28;20440;-57
2023/09/27 11:26:19;;;;;;;6.20;3.80;;;33.10;41.20;;;;;;5073726;28;20451;-57
2023/09/27 11:28:46;;;;;;;8.43;4.23;;;33.00;40.30;;;;;;5074153;28;20452;-57
2023/09/27 11:31:23;;;;;;;4.53;4.10;;;32.80;40.30;;;;;;5073546;28;20448;-56
2023/09/27 11:33:50;;;;;;;6.73;3.80;;;32.50;40.40;;;;;;5073655;28;20521;-56
2023/09/27 11:36:17;;;;;;;4.17;3.77;;;32.10;40.90;;;;;;5093800;28;20449;-57
2023/09/27 11:38:49;;;;;;;3.90;3.60;;;31.80;41.30;;;;;;5093667;28;20450;-57
2023/09/27 11:41:16;;;;;;;3.93;3.47;;;31.50;42.40;;;;;;5093624;28;20427;-56
2023/09/27 11:43:44;;;;;;;3.87;3.40;;;31.60;43.20;;;;;;5093328;28;20439;-56
2023/09/27 11:46:11;;;;;;;5.20;3.23;;;32.00;43.00;;;;;;5093547;28;20443;-57
2023/09/27 11:48:40;;;;;;;5.43;3.73;;;32.60;41.70;;;;;;5093648;28;20443;-56
2023/09/27 11:51:06;;;;;;;5.93;3.80;;;33.20;40.60;;;;;;5093454;28;20459;-57
2023/09/27 11:53:33;;;;;;;3.60;3.30;;;34.00;39.00;;;;;;5093423;28;20483;-57
2023/09/27 11:56:01;;;;;;;4.33;3.93;;;34.90;37.30;;;;;;5093506;28;20443;-57
2023/09/27 11:58:27;;;;;;;4.23;3.83;;;36.00;36.40;;;;;;5094572;28;20443;-57
2023/09/27 12:00:54;;;;;;;5.40;4.10;;;37.10;33.40;;;;;;5093419;28;20217;-57
2023/09/27 12:03:21;;;;;;;4.85;3.30;;;38.10;32.20;;;;;;5093057;28;20689;-57
2023/09/27 12:05:49;;;;;;;3.83;3.00;;;39.10;30.00;;;;;;5093073;28;20697;-57
2023/09/27 12:08:15;;;;;;;4.65;3.60;;;39.90;28.60;;;;;;5093363;28;20209;-57
2023/09/27 12:10:42;;;;;;;3.67;2.97;;;40.60;27.10;;;;;;5093241;28;20225;-57
2023/09/27 12:13:09;;;;;;;3.33;3.03;;;41.20;26.40;;;;;;5093197;28;20298;-56
2023/09/27 12:15:35;;;;;;;3.83;3.10;;;41.70;26.00;;;;;;5093503;28;20216;-58
2023/09/27 12:18:02;;;;;;;3.25;3.03;;;41.80;25.10;;;;;;5093548;28;20201;-57
2023/09/27 12:20:30;;;;;;;4.40;3.00;;;41.70;25.30;;;;;;5093406;28;20236;-57
2023/09/27 12:22:58;;;;;;;3.15;2.80;;;41.30;25.50;;;;;;5093403;28;20215;-57
2023/09/27 12:25:25;;;;;;;4.28;2.97;;;41.00;25.90;;;;;;5092982;28;20208;-57
2023/09/27 12:27:52;;;;;;;4.28;2.78;;;40.50;26.50;;;;;;5092918;28;20769;-57
2023/09/27 12:30:19;;;;;;;4.82;3.40;;;40.00;25.70;;;;;;5093233;28;20626;-57
2023/09/27 12:32:45;;;;;;;5.10;3.20;;;39.30;26.00;;;;;;5093107;28;20367;-57
2023/09/27 12:35:12;;;;;;;4.85;3.50;;;38.80;26.10;;;;;;5094882;28;20258;-57
2023/09/27 12:37:39;;;;;;;9.95;4.85;;;38.40;27.10;;;;;;5097091;28;20197;-57
2023/09/27 12:40:08;;;;;;;4.15;3.70;;;37.90;28.00;;;;;;5096988;28;20235;-57
2023/09/27 12:42:35;;;;;;;5.85;4.20;;;37.30;28.00;;;;;;5096931;28;20201;-56
2023/09/27 12:45:03;;;;;;;4.70;4.03;;;37.00;28.60;;;;;;5096862;28;20201;-56
2023/09/27 12:47:30;;;;;;;4.05;3.70;;;36.80;28.90;;;;;;5096871;28;20287;-57
2023/09/27 12:49:58;;;;;;;5.73;3.50;;;36.70;30.00;;;;;;5096864;28;20228;-57